createdAt,value
2019-02-26T00:01:46.172Z,29.23
2019-02-26T00:04:11.825Z,30.65
2019-02-26T00:06:38.129Z,31.82
2019-02-26T00:09:11.707Z,31.62
2019-02-26T00:11:40.161Z,29.87
2019-02-26T00:14:06.487Z,31.57
2019-02-26T00:16:35.347Z,32.05
2019-02-26T00:19:07.432Z,29.57
2019-02-26T00:21:35.449Z,30.62
2019-02-26T00:24:01.716Z,29.60
2019-02-26T00:26:27.999Z,30.57
2019-02-26T00:28:54.327Z,31.27
2019-02-26T00:31:21.534Z,30.97
2019-02-26T00:33:50.086Z,30.65
2019-02-26T00:36:16.489Z,30.65
2019-02-26T00:38:44.438Z,27.95
2019-02-26T00:41:11.091Z,29.50
2019-02-26T00:43:37.486Z,30.25
2019-02-26T00:46:05.681Z,29.12
2019-02-26T00:48:33.716Z,27.98
2019-02-26T00:51:02.786Z,28.80
2019-02-26T00:53:30.623Z,28.55
2019-02-26T00:56:00.579Z,29.63
2019-02-26T00:58:25.441Z,27.87
2019-02-26T01:00:51.912Z,28.57
2019-02-26T01:03:18.334Z,27.35
2019-02-26T01:05:45.411Z,27.52
2019-02-26T01:08:13.441Z,29.35
2019-02-26T01:10:41.526Z,27.20
2019-02-26T01:13:09.895Z,29.45
2019-02-26T01:15:36.534Z,29.95
2019-02-26T01:18:03.775Z,28.85
2019-02-26T01:20:31.973Z,27.55
2019-02-26T01:22:58.543Z,28.30
2019-02-26T01:25:24.980Z,29.45
2019-02-26T01:27:53.266Z,29.25
2019-02-26T01:30:23.860Z,29.75
2019-02-26T01:32:49.515Z,31.40
2019-02-26T01:35:15.842Z,30.90
2019-02-26T01:37:42.536Z,31.00
2019-02-26T01:40:13.622Z,32.05
2019-02-26T01:42:41.122Z,29.55
2019-02-26T01:45:10.081Z,30.75
2019-02-26T01:47:36.346Z,32.00
2019-02-26T01:50:06.941Z,30.82
2019-02-26T01:52:33.637Z,32.25
2019-02-26T01:55:02.198Z,30.70
2019-02-26T01:57:28.084Z,30.62
2019-02-26T01:59:54.541Z,30.55
2019-02-26T02:02:22.724Z,30.23
2019-02-26T02:04:49.074Z,31.82
2019-02-26T02:07:15.380Z,30.75
2019-02-26T02:09:41.693Z,31.42
2019-02-26T02:12:10.992Z,30.65
2019-02-26T02:14:36.516Z,33.58
2019-02-26T02:17:03.608Z,31.95
2019-02-26T02:19:32.662Z,33.30
2019-02-26T02:22:00.605Z,31.90
2019-02-26T02:24:27.306Z,33.08
2019-02-26T02:26:55.582Z,33.10
2019-02-26T02:29:24.535Z,31.85
2019-02-26T02:31:49.831Z,33.58
2019-02-26T02:34:16.051Z,34.05
2019-02-26T02:36:42.291Z,31.37
2019-02-26T02:39:13.005Z,31.35
2019-02-26T02:41:39.386Z,30.68
2019-02-26T02:44:06.647Z,32.35
2019-02-26T02:46:34.147Z,31.15
2019-02-26T02:49:02.282Z,32.88
2019-02-26T02:51:31.348Z,29.90
2019-02-26T02:54:06.293Z,30.97
2019-02-26T02:56:33.386Z,32.00
2019-02-26T02:59:00.872Z,32.40
2019-02-26T03:01:28.655Z,32.23
2019-02-26T03:03:57.945Z,33.40
2019-02-26T03:06:24.215Z,32.63
2019-02-26T03:08:53.488Z,32.50
2019-02-26T03:11:20.278Z,32.83
2019-02-26T03:13:48.607Z,33.25
2019-02-26T03:16:16.075Z,31.65
2019-02-26T03:18:43.039Z,30.68
2019-02-26T03:21:09.515Z,31.12
2019-02-26T03:23:38.002Z,33.65
2019-02-26T03:26:04.089Z,32.65
2019-02-26T03:28:34.888Z,30.30
2019-02-26T03:30:58.514Z,32.58
2019-02-26T03:33:25.013Z,29.70
2019-02-26T03:35:51.293Z,32.40
2019-02-26T03:38:18.139Z,30.12
2019-02-26T03:40:45.844Z,32.63
2019-02-26T03:43:13.082Z,32.55
2019-02-26T03:45:40.288Z,31.37
2019-02-26T03:48:06.771Z,33.65
2019-02-26T03:50:33.207Z,33.65
2019-02-26T03:52:59.617Z,33.00
2019-02-26T03:55:26.876Z,33.38
2019-02-26T03:57:56.421Z,30.32
2019-02-26T04:00:21.699Z,32.10
2019-02-26T04:02:50.702Z,32.55
2019-02-26T04:05:16.611Z,33.20
2019-02-26T04:07:44.401Z,30.82
2019-02-26T04:10:13.635Z,31.23
2019-02-26T04:12:42.261Z,29.90
2019-02-26T04:15:12.321Z,32.78
2019-02-26T04:17:40.154Z,31.75
2019-02-26T04:20:08.871Z,31.27
2019-02-26T04:22:35.443Z,30.92
2019-02-26T04:25:25.624Z,31.87
2019-02-26T04:28:10.240Z,32.17
2019-02-26T04:30:47.764Z,33.80
2019-02-26T04:33:30.788Z,31.93
2019-02-26T04:36:19.849Z,32.33
2019-02-26T04:39:22.677Z,30.88
2019-02-26T04:42:11.955Z,32.55
2019-02-26T04:45:08.725Z,31.52
2019-02-26T04:47:54.212Z,31.60
2019-02-26T04:50:23.005Z,33.55
2019-02-26T04:52:47.739Z,33.23
2019-02-26T04:55:14.049Z,32.35
2019-02-26T04:57:43.314Z,32.15
2019-02-26T05:00:10.493Z,32.30
2019-02-26T05:02:37.179Z,32.25
2019-02-26T05:05:06.318Z,31.55
2019-02-26T05:07:32.935Z,32.60
2019-02-26T05:10:02.259Z,32.67
2019-02-26T05:12:30.371Z,33.48
2019-02-26T05:14:58.081Z,32.17
2019-02-26T05:17:27.250Z,31.55
2019-02-26T05:19:52.742Z,33.02
2019-02-26T05:22:21.502Z,31.70
2019-02-26T05:24:48.245Z,32.17
2019-02-26T05:27:18.721Z,31.52
2019-02-26T05:29:46.665Z,31.60
2019-02-26T05:32:12.190Z,33.15
2019-02-26T05:34:40.051Z,33.70
2019-02-26T05:37:08.136Z,32.63
2019-02-26T05:39:34.733Z,34.43
2019-02-26T05:42:03.209Z,34.13
2019-02-26T05:44:29.487Z,35.35
2019-02-26T05:46:58.163Z,35.13
2019-02-26T05:49:24.005Z,34.20
2019-02-26T05:51:50.271Z,35.38
2019-02-26T05:54:18.581Z,32.85
2019-02-26T05:56:46.864Z,33.08
2019-02-26T05:59:15.399Z,32.78
2019-02-26T06:01:41.366Z,33.13
2019-02-26T06:04:09.535Z,32.25
2019-02-26T06:06:36.004Z,32.05
2019-02-26T06:09:05.591Z,31.55
2019-02-26T06:11:34.039Z,30.72
2019-02-26T06:14:07.153Z,32.53
2019-02-26T06:16:31.562Z,33.13
2019-02-26T06:18:58.039Z,33.65
2019-02-26T06:21:26.075Z,32.65
2019-02-26T06:23:57.200Z,34.13
2019-02-26T06:26:28.014Z,34.80
2019-02-26T06:28:52.911Z,36.58
2019-02-26T06:31:22.074Z,35.55
2019-02-26T06:33:50.456Z,34.27
2019-02-26T06:36:18.410Z,34.80
2019-02-26T06:38:49.312Z,33.33
2019-02-26T06:41:12.531Z,33.13
2019-02-26T06:43:39.963Z,34.75
2019-02-26T06:46:09.334Z,34.40
2019-02-26T06:48:35.321Z,36.65
2019-02-26T06:51:04.105Z,35.88
2019-02-26T06:53:29.624Z,33.53
2019-02-26T06:55:55.838Z,34.95
2019-02-26T06:58:23.866Z,35.43
2019-02-26T07:00:53.316Z,34.75
2019-02-26T07:03:18.448Z,34.53
2019-02-26T07:05:46.569Z,35.25
2019-02-26T07:08:12.814Z,34.88
2019-02-26T07:10:39.051Z,34.50
2019-02-26T07:13:07.026Z,34.65
2019-02-26T07:15:33.327Z,34.33
2019-02-26T07:18:02.244Z,33.63
2019-02-26T07:20:33.832Z,31.90
2019-02-26T07:22:55.631Z,34.63
2019-02-26T07:25:21.994Z,33.73
2019-02-26T07:27:48.206Z,34.55
2019-02-26T07:30:14.565Z,33.23
2019-02-26T07:32:43.012Z,32.90
2019-02-26T07:35:11.074Z,31.55
2019-02-26T07:37:38.143Z,33.40
2019-02-26T07:40:13.920Z,33.13
2019-02-26T07:42:41.444Z,34.73
2019-02-26T07:45:15.090Z,33.78
2019-02-26T07:47:38.021Z,34.20
2019-02-26T07:50:06.701Z,34.70
2019-02-26T07:52:33.811Z,33.88
2019-02-26T07:55:00.051Z,35.08
2019-02-26T07:57:27.595Z,36.53
2019-02-26T07:59:53.943Z,34.03
2019-02-26T08:02:20.166Z,32.40
2019-02-26T08:04:46.419Z,35.20
2019-02-26T08:07:12.650Z,35.15
2019-02-26T08:09:39.440Z,34.98
2019-02-26T08:12:08.435Z,34.83
2019-02-26T08:14:34.082Z,35.92
2019-02-26T08:17:01.886Z,34.25
2019-02-26T08:19:29.438Z,31.70
2019-02-26T08:21:57.142Z,35.68
2019-02-26T08:24:24.621Z,38.02
2019-02-26T08:26:50.969Z,33.40
2019-02-26T08:29:18.485Z,35.63
2019-02-26T08:31:46.704Z,36.25
2019-02-26T08:34:15.589Z,34.67
2019-02-26T08:36:40.871Z,35.48
2019-02-26T08:39:07.218Z,35.05
2019-02-26T08:41:33.666Z,34.60
2019-02-26T08:43:59.915Z,36.93
2019-02-26T08:46:26.175Z,37.30
2019-02-26T08:48:52.442Z,36.13
2019-02-26T08:51:19.779Z,38.78
2019-02-26T08:53:47.667Z,38.35
2019-02-26T08:56:14.783Z,37.63
2019-02-26T08:58:42.833Z,36.05
2019-02-26T09:01:09.075Z,36.68
2019-02-26T09:03:40.819Z,37.15
2019-02-26T09:06:12.847Z,36.70
2019-02-26T09:08:33.072Z,35.57
2019-02-26T09:11:00.841Z,35.97
2019-02-26T09:13:28.528Z,36.07
2019-02-26T09:15:55.613Z,37.90
2019-02-26T09:18:24.734Z,37.00
2019-02-26T09:20:50.726Z,36.50
2019-02-26T09:23:20.859Z,36.07
2019-02-26T09:25:46.454Z,36.40
2019-02-26T09:28:13.064Z,36.50
2019-02-26T09:30:40.820Z,37.83
2019-02-26T09:33:09.070Z,37.28
2019-02-26T09:35:35.296Z,37.80
2019-02-26T09:38:01.533Z,36.60
2019-02-26T09:40:29.227Z,39.30
2019-02-26T09:42:58.166Z,37.27
2019-02-26T09:45:26.079Z,38.47
2019-02-26T09:47:55.628Z,41.17
2019-02-26T09:50:22.617Z,38.90
2019-02-26T09:52:50.834Z,40.03
2019-02-26T09:55:17.043Z,38.10
2019-02-26T09:57:43.610Z,39.50
2019-02-26T10:00:22.081Z,38.57
2019-02-26T10:02:47.168Z,39.23
2019-02-26T10:05:36.368Z,38.97
2019-02-26T10:08:05.212Z,35.78
2019-02-26T10:10:33.189Z,39.00
2019-02-26T10:12:59.967Z,39.97
2019-02-26T10:15:26.757Z,39.87
2019-02-26T10:17:52.972Z,39.10
2019-02-26T10:20:28.627Z,40.27
2019-02-26T10:22:57.093Z,41.10
2019-02-26T10:25:23.370Z,42.80
2019-02-26T10:27:50.584Z,39.67
2019-02-26T10:30:17.935Z,40.30
2019-02-26T10:32:46.899Z,43.20
2019-02-26T10:35:18.737Z,41.50
2019-02-26T10:37:50.259Z,39.90
2019-02-26T10:40:17.111Z,41.83
2019-02-26T10:42:46.156Z,42.27
2019-02-26T10:45:17.738Z,42.87
2019-02-26T10:47:43.977Z,41.43
2019-02-26T10:50:19.418Z,42.17
2019-02-26T10:52:44.522Z,43.00
2019-02-26T10:55:15.008Z,39.47
2019-02-26T10:57:39.576Z,39.03
2019-02-26T11:00:31.102Z,39.10
2019-02-26T11:02:56.362Z,41.30
2019-02-26T11:05:26.251Z,40.40
2019-02-26T11:07:53.170Z,40.33
2019-02-26T11:10:20.780Z,39.50
2019-02-26T11:12:48.155Z,39.20
2019-02-26T11:15:17.432Z,37.40
2019-02-26T11:17:45.654Z,39.30
2019-02-26T11:20:15.513Z,38.73
2019-02-26T11:22:44.379Z,39.73
2019-02-26T11:25:13.329Z,39.40
2019-02-26T11:27:43.496Z,39.73
2019-02-26T11:30:23.828Z,37.70
2019-02-26T11:32:50.002Z,39.27
2019-02-26T11:35:17.682Z,35.60
2019-02-26T11:37:47.192Z,33.27
2019-02-26T11:40:19.796Z,35.43
2019-02-26T11:42:46.719Z,33.00
2019-02-26T11:45:19.481Z,35.73
2019-02-26T11:47:45.829Z,35.43
2019-02-26T11:50:27.127Z,34.27
2019-02-26T11:52:54.232Z,31.37
2019-02-26T11:55:18.848Z,25.53
2019-02-26T11:57:45.743Z,26.50
2019-02-26T12:00:25.477Z,25.53
2019-02-26T12:02:46.751Z,23.43
2019-02-26T12:05:13.187Z,24.57
2019-02-26T12:07:39.719Z,24.83
2019-02-26T12:10:12.844Z,25.53
2019-02-26T12:12:39.532Z,25.23
2019-02-26T12:15:11.907Z,24.40
2019-02-26T12:17:37.842Z,24.90
2019-02-26T12:20:08.467Z,22.83
2019-02-26T12:22:35.029Z,22.43
2019-02-26T12:25:02.699Z,21.83
2019-02-26T12:27:29.690Z,20.67
2019-02-26T12:29:55.968Z,22.60
2019-02-26T12:32:24.358Z,27.60
2019-02-26T12:34:51.468Z,30.20
2019-02-26T12:37:17.862Z,28.80
2019-02-26T12:39:46.506Z,30.23
2019-02-26T12:42:13.987Z,29.67
2019-02-26T12:44:42.999Z,31.73
2019-02-26T12:47:08.747Z,30.87
2019-02-26T12:49:38.280Z,32.00
2019-02-26T12:52:03.579Z,30.67
2019-02-26T12:54:33.207Z,30.67
2019-02-26T12:57:00.430Z,20.93
2019-02-26T12:59:26.299Z,26.80
2019-02-26T13:01:52.638Z,24.37
2019-02-26T13:04:21.418Z,21.33
2019-02-26T13:06:48.504Z,25.50
2019-02-26T13:09:16.856Z,24.23
2019-02-26T13:12:00.264Z,26.00
2019-02-26T13:14:11.261Z,26.37
2019-02-26T13:16:37.684Z,25.00
2019-02-26T13:19:04.731Z,25.20
2019-02-26T13:21:31.734Z,24.67
2019-02-26T13:24:03.587Z,24.03
2019-02-26T13:26:26.236Z,24.57
2019-02-26T13:28:55.876Z,25.80
2019-02-26T13:31:22.541Z,24.40
2019-02-26T13:33:49.053Z,25.93
2019-02-26T13:36:16.335Z,25.50
2019-02-26T13:38:45.912Z,24.50
2019-02-26T13:41:28.985Z,25.67
2019-02-26T13:43:39.433Z,24.80
2019-02-26T13:46:05.950Z,25.40
2019-02-26T13:48:32.297Z,26.00
2019-02-26T13:51:00.571Z,25.83
2019-02-26T13:53:26.903Z,26.13
2019-02-26T13:55:53.363Z,27.17
2019-02-26T13:58:19.597Z,26.37
2019-02-26T14:00:46.098Z,25.80
2019-02-26T14:03:12.715Z,25.07
2019-02-26T14:05:39.153Z,25.47
2019-02-26T14:08:05.921Z,24.57
2019-02-26T14:10:32.296Z,25.23
2019-02-26T14:12:59.889Z,25.43
2019-02-26T14:15:28.884Z,26.50
2019-02-26T14:17:55.442Z,25.27
2019-02-26T14:20:22.343Z,23.83
2019-02-26T14:22:48.765Z,24.40
2019-02-26T14:25:16.557Z,23.33
2019-02-26T14:27:43.024Z,23.77
2019-02-26T14:30:15.274Z,21.97
2019-02-26T14:32:41.718Z,23.53
2019-02-26T14:35:10.394Z,23.13
2019-02-26T14:37:36.782Z,22.80
2019-02-26T14:40:06.252Z,24.67
2019-02-26T14:42:32.887Z,25.60
2019-02-26T14:45:08.995Z,24.80
2019-02-26T14:47:35.347Z,25.00
2019-02-26T14:50:04.369Z,25.17
2019-02-26T14:52:30.683Z,24.70
2019-02-26T14:54:57.231Z,26.20
2019-02-26T14:57:24.797Z,26.37
2019-02-26T14:59:51.288Z,26.23
2019-02-26T15:02:25.168Z,24.60
2019-02-26T15:04:52.016Z,25.67
2019-02-26T15:07:20.862Z,25.90
2019-02-26T15:09:50.229Z,26.33
2019-02-26T15:12:16.477Z,24.83
2019-02-26T15:14:42.883Z,27.23
2019-02-26T15:17:09.206Z,26.03
2019-02-26T15:19:49.177Z,27.67
2019-02-26T15:22:05.646Z,25.70
2019-02-26T15:24:31.931Z,27.20
2019-02-26T15:26:58.235Z,25.77
2019-02-26T15:29:24.484Z,23.60
2019-02-26T15:31:50.821Z,23.47
2019-02-26T15:34:17.556Z,25.60
2019-02-26T15:36:43.940Z,22.90
2019-02-26T15:39:10.371Z,23.00
2019-02-26T15:41:36.768Z,25.70
2019-02-26T15:44:03.184Z,24.30
2019-02-26T15:46:31.474Z,27.93
2019-02-26T15:48:57.951Z,27.97
2019-02-26T15:51:24.682Z,29.00
2019-02-26T15:53:55.306Z,28.77
2019-02-26T15:56:19.088Z,29.77
2019-02-26T15:58:45.811Z,29.87
2019-02-26T16:01:12.858Z,30.30
2019-02-26T16:03:40.883Z,32.70
2019-02-26T16:06:07.436Z,34.27
2019-02-26T16:08:34.743Z,33.47
2019-02-26T16:11:01.256Z,31.43
2019-02-26T16:13:27.628Z,31.57
2019-02-26T16:15:54.436Z,29.77
2019-02-26T16:18:20.779Z,30.00
2019-02-26T16:20:47.111Z,30.57
2019-02-26T16:23:13.861Z,30.07
2019-02-26T16:25:40.136Z,29.00
2019-02-26T16:28:07.275Z,27.30
2019-02-26T16:30:35.173Z,27.80
2019-02-26T16:33:01.594Z,30.67
2019-02-26T16:35:29.731Z,30.13
2019-02-26T16:38:01.905Z,32.67
2019-02-26T16:40:31.657Z,33.27
2019-02-26T16:42:56.679Z,32.47
2019-02-26T16:45:25.413Z,31.30
2019-02-26T16:47:52.062Z,30.37
2019-02-26T16:50:28.116Z,28.93
2019-02-26T16:52:54.691Z,29.43
2019-02-26T16:55:21.358Z,28.07
2019-02-26T16:57:47.736Z,30.30
2019-02-26T17:00:16.624Z,31.70
2019-02-26T17:02:43.470Z,31.80
2019-02-26T17:05:14.316Z,31.53
2019-02-26T17:07:38.279Z,31.30
2019-02-26T17:10:11.558Z,31.97
2019-02-26T17:12:38.379Z,32.73
2019-02-26T17:15:11.635Z,32.37
2019-02-26T17:17:37.935Z,30.97
2019-02-26T17:20:07.841Z,30.80
2019-02-26T17:22:34.551Z,31.80
2019-02-26T17:25:01.386Z,32.30
2019-02-26T17:27:27.769Z,32.40
2019-02-26T17:29:54.464Z,32.07
2019-02-26T17:32:23.776Z,32.50
2019-02-26T17:34:50.192Z,32.87
2019-02-26T17:37:17.446Z,32.13
2019-02-26T17:39:45.028Z,30.77
2019-02-26T17:42:11.326Z,31.37
2019-02-26T17:44:39.571Z,29.43
2019-02-26T17:47:05.850Z,31.80
2019-02-26T17:49:33.637Z,31.77
2019-02-26T17:52:00.416Z,31.10
2019-02-26T17:54:26.835Z,30.90
2019-02-26T17:56:54.955Z,31.47
2019-02-26T17:59:21.337Z,29.83
2019-02-26T18:01:49.118Z,33.03
2019-02-26T18:04:15.622Z,33.20
2019-02-26T18:06:42.469Z,35.80
2019-02-26T18:09:09.110Z,39.90
2019-02-26T18:11:36.566Z,43.93
2019-02-26T18:14:03.325Z,43.87
2019-02-26T18:16:31.764Z,40.40
2019-02-26T18:18:59.496Z,39.90
2019-02-26T18:21:25.895Z,41.90
2019-02-26T18:23:53.932Z,39.27
2019-02-26T18:26:20.170Z,39.17
2019-02-26T18:28:47.809Z,41.27
2019-02-26T18:31:14.739Z,43.63
2019-02-26T18:33:41.036Z,44.03
2019-02-26T18:36:07.435Z,40.80
2019-02-26T18:38:33.786Z,36.20
2019-02-26T18:41:00.819Z,32.33
2019-02-26T18:43:27.899Z,31.20
2019-02-26T18:45:54.447Z,30.67
2019-02-26T18:48:21.018Z,34.03
2019-02-26T18:50:47.414Z,32.17
2019-02-26T18:53:14.037Z,34.83
2019-02-26T18:55:41.165Z,32.77
2019-02-26T18:58:07.889Z,32.50
2019-02-26T19:00:34.297Z,31.87
2019-02-26T19:03:02.569Z,30.37
2019-02-26T19:05:28.875Z,27.87
2019-02-26T19:07:55.215Z,25.53
2019-02-26T19:10:21.580Z,26.07
2019-02-26T19:12:47.944Z,26.80
2019-02-26T19:15:17.904Z,26.23
2019-02-26T19:17:46.235Z,29.60
2019-02-26T19:20:15.569Z,27.00
2019-02-26T19:22:42.277Z,30.10
2019-02-26T19:25:09.164Z,28.10
2019-02-26T19:27:36.192Z,28.50
2019-02-26T19:30:05.572Z,29.87
2019-02-26T19:32:33.059Z,27.33
2019-02-26T19:35:01.970Z,28.17
2019-02-26T19:37:28.776Z,30.27
2019-02-26T19:39:55.076Z,29.33
2019-02-26T19:42:21.480Z,29.20
2019-02-26T19:44:48.310Z,28.47
2019-02-26T19:47:14.785Z,27.33
2019-02-26T19:49:41.500Z,26.00
2019-02-26T19:52:13.813Z,26.50
2019-02-26T19:54:42.572Z,23.40
2019-02-26T19:57:09.404Z,24.77
2019-02-26T19:59:35.852Z,23.47
2019-02-26T20:02:02.300Z,25.27
2019-02-26T20:04:28.572Z,23.33
2019-02-26T20:06:58.442Z,24.77
2019-02-26T20:09:23.788Z,23.67
2019-02-26T20:11:53.604Z,24.33
2019-02-26T20:14:21.495Z,23.17
2019-02-26T20:16:46.626Z,25.93
2019-02-26T20:19:13.047Z,23.97
2019-02-26T20:21:39.451Z,24.70
2019-02-26T20:24:09.020Z,24.40
2019-02-26T20:26:35.610Z,23.77
2019-02-26T20:29:02.259Z,23.33
2019-02-26T20:31:28.977Z,24.20
2019-02-26T20:33:56.342Z,25.27
2019-02-26T20:36:23.296Z,24.47
2019-02-26T20:38:49.662Z,23.87
2019-02-26T20:41:16.077Z,24.40
2019-02-26T20:43:42.885Z,24.73
2019-02-26T20:46:09.289Z,24.23
2019-02-26T20:48:36.863Z,23.47
2019-02-26T20:51:03.740Z,24.03
2019-02-26T20:53:30.042Z,24.73
2019-02-26T20:55:57.619Z,25.50
2019-02-26T20:58:24.577Z,26.47
2019-02-26T21:00:51.243Z,27.67
2019-02-26T21:03:17.559Z,26.70
2019-02-26T21:05:44.665Z,25.37
2019-02-26T21:08:11.667Z,26.70
2019-02-26T21:10:39.043Z,26.35
2019-02-26T21:13:05.667Z,25.70
2019-02-26T21:15:32.139Z,26.23
2019-02-26T21:17:58.725Z,22.90
2019-02-26T21:20:25.521Z,25.33
2019-02-26T21:22:54.649Z,24.93
2019-02-26T21:25:20.506Z,24.95
2019-02-26T21:27:46.997Z,23.77
2019-02-26T21:30:23.907Z,25.10
2019-02-26T21:32:50.561Z,25.00
2019-02-26T21:35:20.176Z,26.35
2019-02-26T21:37:45.272Z,24.20
2019-02-26T21:40:16.196Z,24.85
2019-02-26T21:42:42.542Z,24.82
2019-02-26T21:45:15.955Z,25.05
2019-02-26T21:47:42.884Z,24.45
2019-02-26T21:50:13.445Z,24.87
2019-02-26T21:52:42.123Z,25.68
2019-02-26T21:55:10.033Z,24.90
2019-02-26T21:57:36.538Z,26.48
2019-02-26T22:00:06.062Z,26.23
2019-02-26T22:02:32.668Z,28.90
2019-02-26T22:05:00.314Z,27.30
2019-02-26T22:07:27.837Z,27.98
2019-02-26T22:09:54.129Z,27.37
2019-02-26T22:12:23.798Z,29.63
2019-02-26T22:14:48.717Z,29.00
2019-02-26T22:17:15.457Z,28.17
2019-02-26T22:19:42.254Z,27.45
2019-02-26T22:22:08.662Z,26.77
2019-02-26T22:24:35.026Z,28.65
2019-02-26T22:27:01.319Z,26.83
2019-02-26T22:29:27.644Z,28.17
2019-02-26T22:31:54.173Z,29.87
2019-02-26T22:34:20.482Z,28.77
2019-02-26T22:36:46.844Z,26.50
2019-02-26T22:39:13.360Z,27.85
2019-02-26T22:41:39.814Z,26.17
2019-02-26T22:44:06.631Z,25.88
2019-02-26T22:46:33.830Z,27.55
2019-02-26T22:49:00.630Z,24.30
2019-02-26T22:51:26.971Z,25.13
2019-02-26T22:53:55.001Z,26.27
2019-02-26T22:56:21.933Z,24.00
2019-02-26T22:58:49.464Z,24.75
2019-02-26T23:01:30.293Z,25.43
2019-02-26T23:03:52.081Z,26.68
2019-02-26T23:06:18.687Z,32.15
2019-02-26T23:08:45.430Z,28.07
2019-02-26T23:11:13.198Z,25.20
2019-02-26T23:13:39.820Z,23.87
2019-02-26T23:16:09.278Z,24.90
2019-02-26T23:18:35.878Z,23.07
2019-02-26T23:21:02.377Z,22.80
2019-02-26T23:23:32.747Z,23.67
2019-02-26T23:25:59.120Z,24.10
2019-02-26T23:28:25.397Z,22.27
2019-02-26T23:30:51.954Z,22.37
2019-02-26T23:33:18.642Z,24.60
2019-02-26T23:35:46.608Z,23.38
2019-02-26T23:38:14.612Z,22.40
2019-02-26T23:40:41.224Z,22.57
2019-02-26T23:43:11.753Z,21.57
2019-02-26T23:45:36.279Z,22.50
2019-02-26T23:48:02.921Z,24.07
2019-02-26T23:50:29.235Z,24.32
2019-02-26T23:52:55.572Z,24.10
2019-02-26T23:55:22.055Z,24.92
2019-02-26T23:57:48.383Z,23.65
